메인 페이지
METAR-TAF:

METAR-TAF

공항 :

Spencer Municipal Airport

Spencer, 아이오와, 미국

위도: 43-09-56N, 경도: 095-12-10W, 고도: 408m

현재 날씨관측

예보는 40분 전, 15:53시(UTC)에 발표되었습니다.
북북동14kt
온도 3°C
습도 75%
기압 1021 hPa
시정: 16.1km
고도 4700ft 상공 구름 조금
고도 7000ft 상공 구름 보통
고도 9000ft 상공 구름 많음

METAR: KSPW 211553Z AUTO 02014KT 10SM FEW047 SCT070 BKN090 03/M01 A3014 RMK AO2 RAB27E44UPB42E43 SLP217 P0000 T00331006

시각: 11:33 (16:33 UTC)


TAF: 누락

4,000개 이상의 공항 관측 자료 및 예보 (METAR 및 TAF 보고).

지도상에서 검색 가능한 기상관측소가 노란 점과 빨간 점으로 표시되어 있습니다.

기상관측소 명을 보려면 표시 위로 마우스를 이동하세요.

날씨 관측과 예보를 보려면 클릭하세요.

지도 변경 : 확대하려면 엑스 표시가 있는 녹색 버튼, 축소하려면 빼기 표시가 있는 녹색 버튼, 다음 페이지의 지도를 보려면 녹색 화살표를 클릭하세요.


METAR-TAF: